TimeGMT,TemperatureF,Dew PointF,Humidity,Sea Level PressureIn,VisibilityMPH,Wind Direction,Wind SpeedMPH,Gust SpeedMPH,PrecipitationIn,Events,Conditions,WindDirDegrees,DateUTC
12:50 AM,35.6,26.6,70,29.92,-9999.0,WNW,9.2,-,N/A,,Clear,290,2012-12-02 00:50:00
1:50 AM,35.6,26.6,70,29.92,-9999.0,WNW,12.7,-,N/A,,Clear,290,2012-12-02 01:50:00
2:50 AM,34,27,66,29.94,31,WNW,12.7,,,,Scattered Clouds,290,2012-12-02 02:50:00
2:50 AM,33.8,26.6,75,29.92,-9999.0,WNW,12.7,-,N/A,,Clear,290,2012-12-02 02:50:00
3:50 AM,32.0,26.6,80,29.92,-9999.0,WSW,8.1,-,N/A,,Clear,250,2012-12-02 03:50:00
4:50 AM,32.0,26.6,80,29.92,-9999.0,West,6.9,-,N/A,,Clear,270,2012-12-02 04:50:00
5:50 AM,33,26,67,29.95,31,WNW,9.2,,,,Scattered Clouds,290,2012-12-02 05:50:00
5:50 AM,33.8,26.6,75,29.95,-9999.0,WNW,9.2,-,N/A,,Clear,290,2012-12-02 05:50:00
6:50 AM,28.4,24.8,86,29.95,6.2,West,8.1,-,N/A,,Partly Cloudy,260,2012-12-02 06:50:00
7:50 AM,32.0,24.8,75,29.95,6.2,WNW,8.1,-,N/A,,Partly Cloudy,290,2012-12-02 07:50:00
8:50 AM,30,24,71,29.96,31,West,5.8,,,,Scattered Clouds,260,2012-12-02 08:50:00
8:50 AM,30.2,24.8,80,29.95,6.2,West,5.8,-,N/A,,Partly Cloudy,260,2012-12-02 08:50:00
9:50 AM,33.8,26.6,75,29.95,6.2,West,8.1,-,N/A,,Partly Cloudy,260,2012-12-02 09:50:00
10:50 AM,33.8,26.6,75,29.98,6.2,WSW,10.4,-,N/A,,Partly Cloudy,250,2012-12-02 10:50:00
11:50 AM,37,29,64,29.97,31,West,8.1,,,,Scattered Clouds,270,2012-12-02 11:50:00
11:50 AM,37.4,28.4,70,29.95,6.2,West,8.1,-,N/A,,Partly Cloudy,270,2012-12-02 11:50:00
12:50 PM,37.4,30.2,75,29.95,6.2,West,5.8,-,N/A,,Scattered Clouds,260,2012-12-02 12:50:00
1:50 PM,39.2,30.2,70,29.95,6.2,West,5.8,-,N/A,,Scattered Clouds,260,2012-12-02 13:50:00
2:50 PM,35,27,64,29.95,25,West,4.6,,,,Scattered Clouds,280,2012-12-02 14:50:00
2:50 PM,35.6,26.6,70,29.95,6.2,West,4.6,-,N/A,,Mostly Cloudy,280,2012-12-02 14:50:00
3:50 PM,32.0,24.8,75,29.92,6.2,West,4.6,-,N/A,,Mostly Cloudy,270,2012-12-02 15:50:00
4:50 PM,30.2,24.8,80,29.92,6.2,West,3.5,-,N/A,,Mostly Cloudy,270,2012-12-02 16:50:00
5:50 PM,29,24,75,29.91,22,West,5.8,,,,Scattered Clouds,270,2012-12-02 17:50:00
5:50 PM,28.4,24.8,86,29.89,6.2,West,5.8,-,N/A,,Mostly Cloudy,270,2012-12-02 17:50:00
6:50 PM,26.6,24.8,93,29.89,-9999.0,NW,2.3,-,N/A,,Clear,310,2012-12-02 18:50:00
7:50 PM,26.6,24.8,93,29.86,-9999.0,NNW,1.2,-,N/A,,Clear,330,2012-12-02 19:50:00
8:50 PM,27,25,87,29.87,16,West,1.2,,,,Overcast,260,2012-12-02 20:50:00
8:50 PM,26.6,24.8,93,29.86,6.2,West,1.2,-,N/A,,Overcast,260,2012-12-02 20:50:00
9:50 PM,28.4,24.8,86,29.83,6.2,WNW,1.2,-,N/A,,Overcast,300,2012-12-02 21:50:00
10:50 PM,28.4,26.6,93,29.80,6.2,North,2.3,-,N/A,,Overcast,350,2012-12-02 22:50:00
11:50 PM,30,28,86,29.79,19,WNW,1.2,,,,Overcast,300,2012-12-02 23:50:00
11:50 PM,30.2,28.4,93,29.77,6.2,WNW,1.2,-,N/A,,Overcast,300,2012-12-02 23:50:00